Time;durP1;ratioP1;P1;durP2;ratioP2;P2;SDS_P1;SDS_P2;PMS_P1;PMS_P2;Temp;Humidity;BMP_temperature;BMP_pressure;BME280_temperature;BME280_humidity;BME280_pressure;Samples;Min_cycle;Max_cycle;Signal;HPM_P1;HPM_P2
2020/12/26 00:01:45;;;;;;;9.48;7.10;;;;;;;1.85;89.47;99301.23;1790397;80;21078;-69
2020/12/26 00:04:14;;;;;;;9.50;7.05;;;;;;;1.86;89.48;99302.51;1790486;80;21070;-69
2020/12/26 00:06:42;;;;;;;10.55;6.47;;;;;;;1.87;89.45;99311.90;1790235;79;21078;-69
2020/12/26 00:09:09;;;;;;;9.30;7.03;;;;;;;1.89;89.29;99310.61;1790506;80;21122;-69
2020/12/26 00:11:37;;;;;;;8.18;6.50;;;;;;;1.89;89.13;99310.22;1790139;78;22339;-69
2020/12/26 00:14:05;;;;;;;7.03;5.97;;;;;;;1.88;89.10;99314.03;1790273;80;21094;-69
2020/12/26 00:16:33;;;;;;;7.78;6.03;;;;;;;1.88;88.82;99312.75;1790213;80;21059;-69
2020/12/26 00:19:02;;;;;;;8.73;6.67;;;;;;;1.88;88.71;99312.33;1788672;80;21122;-70
2020/12/26 00:21:30;;;;;;;9.75;7.17;;;;;;;1.89;88.67;99319.19;1790327;80;21590;-69
2020/12/26 00:23:57;;;;;;;7.35;6.10;;;;;;;1.89;88.19;99319.19;1790473;80;21811;-69
2020/12/26 00:26:24;;;;;;;6.33;5.58;;;;;;;1.89;88.12;99320.87;1790351;80;21081;-69
2020/12/26 00:28:52;;;;;;;7.10;5.55;;;;;;;1.85;87.67;99322.59;1790288;80;21606;-69
2020/12/26 00:31:20;;;;;;;6.90;5.22;;;;;;;1.79;86.78;99322.58;1790357;80;21158;-69
2020/12/26 00:33:48;;;;;;;6.62;5.10;;;;;;;1.72;86.86;99327.27;1790257;80;21126;-69
2020/12/26 00:36:15;;;;;;;7.87;6.08;;;;;;;1.67;87.23;99325.14;1790348;80;21425;-69
2020/12/26 00:38:43;;;;;;;9.58;5.97;;;;;;;1.63;87.27;99320.86;1790099;80;21520;-69
2020/12/26 00:41:14;;;;;;;7.22;5.97;;;;;;;1.61;87.59;99327.69;1790269;80;21079;-70
2020/12/26 00:43:42;;;;;;;8.53;6.10;;;;;;;1.60;87.88;99320.43;1790195;80;21149;-68
2020/12/26 00:46:10;;;;;;;9.68;6.40;;;;;;;1.61;88.18;99331.11;1790317;80;21117;-67
2020/12/26 00:48:38;;;;;;;8.35;6.17;;;;;;;1.63;88.41;99337.51;1768076;80;22150;-68
2020/12/26 00:51:13;;;;;;;8.13;6.80;;;;;;;1.67;88.60;99330.27;1790023;80;21285;-68
2020/12/26 00:53:40;;;;;;;8.80;6.53;;;;;;;1.68;88.33;99334.54;1790246;80;21059;-67
2020/12/26 00:56:09;;;;;;;6.55;4.90;;;;;;;1.67;88.37;99339.23;1790272;80;21570;-68
2020/12/26 00:58:38;;;;;;;6.05;4.58;;;;;;;1.69;88.09;99345.64;1790087;80;21126;-68
2020/12/26 01:01:06;;;;;;;6.03;4.80;;;;;;;1.69;87.55;99343.93;1790302;80;21185;-68
2020/12/26 01:03:52;;;;;;;8.68;5.47;;;;;;;1.68;87.07;99342.66;1789989;80;21067;-68
2020/12/26 01:06:20;;;;;;;6.45;5.20;;;;;;;1.65;86.77;99339.64;1790248;80;21137;-68
2020/12/26 01:08:48;;;;;;;7.00;4.78;;;;;;;1.60;86.21;99344.77;1789878;80;21114;-67
2020/12/26 01:11:15;;;;;;;5.67;4.42;;;;;;;1.57;85.79;99349.88;1790310;80;21630;-68
2020/12/26 01:13:43;;;;;;;5.35;4.12;;;;;;;1.54;85.57;99346.46;1790174;80;21380;-68
2020/12/26 01:16:12;;;;;;;5.08;4.17;;;;;;;1.51;85.55;99346.44;1790210;80;21134;-69
2020/12/26 01:18:40;;;;;;;6.60;4.42;;;;;;;1.50;85.09;99346.02;1790003;80;21146;-68
2020/12/26 01:21:08;;;;;;;4.90;4.40;;;;;;;1.48;85.13;99345.16;1790384;80;21594;-68
2020/12/26 01:23:36;;;;;;;4.58;4.00;;;;;;;1.47;84.78;99346.02;1768233;80;21181;-68
2020/12/26 01:26:03;;;;;;;4.87;3.80;;;;;;;1.44;84.08;99350.72;1790321;80;21547;-67
2020/12/26 01:28:31;;;;;;;4.95;3.65;;;;;;;1.39;83.24;99353.68;1790293;80;21595;-67
2020/12/26 01:30:58;;;;;;;4.33;3.40;;;;;;;1.36;81.27;99363.50;1790339;80;21593;-68
2020/12/26 01:33:26;;;;;;;4.15;3.50;;;;;;;1.32;81.62;99370.73;1790237;80;21165;-68
2020/12/26 01:35:54;;;;;;;3.70;2.72;;;;;;;1.30;81.01;99358.35;1790128;80;21058;-67
2020/12/26 01:38:21;;;;;;;3.02;2.70;;;;;;;1.29;81.01;99358.35;1790403;80;23573;-67
2020/12/26 01:40:50;;;;;;;4.55;2.90;;;;;;;1.30;80.57;99362.20;1790071;80;21130;-67
2020/12/26 01:43:18;;;;;;;4.03;3.20;;;;;;;1.32;80.42;99356.64;1790236;80;21610;-68
2020/12/26 01:45:46;;;;;;;4.20;3.35;;;;;;;1.34;80.17;99358.77;1789956;80;22283;-67
2020/12/26 01:48:17;;;;;;;3.62;3.25;;;;;;;1.35;80.11;99364.33;1790402;80;21484;-68
2020/12/26 01:50:45;;;;;;;3.75;3.05;;;;;;;1.36;80.02;99364.78;1790343;80;21371;-67
2020/12/26 01:53:13;;;;;;;3.02;2.62;;;;;;;1.37;79.71;99365.20;1790095;80;21079;-67
2020/12/26 01:55:42;;;;;;;3.17;2.85;;;;;;;1.39;79.16;99367.77;1790141;80;21074;-67
2020/12/26 01:58:14;;;;;;;2.70;2.50;;;;;;;1.38;78.90;99360.51;1790345;80;21150;-67
2020/12/26 02:00:41;;;;;;;2.80;2.50;;;;;;;1.38;78.47;99363.50;1790172;80;21063;-68
2020/12/26 02:03:09;;;;;;;2.55;2.20;;;;;;;1.42;78.36;99362.64;1790050;80;21382;-67
2020/12/26 02:05:37;;;;;;;2.30;2.10;;;;;;;1.44;78.07;99366.09;1790266;80;21137;-68
2020/12/26 02:08:05;;;;;;;2.80;2.20;;;;;;;1.46;77.68;99363.52;1790112;80;21122;-68
2020/12/26 02:10:33;;;;;;;2.55;1.92;;;;;;;1.45;77.45;99360.53;1790346;80;21079;-67
2020/12/26 02:13:02;;;;;;;2.22;2.05;;;;;;;1.42;77.30;99361.78;1790269;80;21141;-67
2020/12/26 02:15:29;;;;;;;2.70;2.50;;;;;;;1.42;77.01;99361.78;1790343;80;21200;-68
2020/12/26 02:17:57;;;;;;;3.00;2.70;;;;;;;1.39;76.72;99359.66;1789951;80;21130;-68
2020/12/26 02:20:27;;;;;;;3.77;3.12;;;;;;;1.38;77.13;99357.95;1788660;80;21129;-67
2020/12/26 02:22:54;;;;;;;3.67;3.02;;;;;;;1.36;77.67;99358.38;1790097;80;22336;-69
2020/12/26 02:25:22;;;;;;;4.20;3.50;;;;;;;1.35;78.23;99355.78;1790213;80;21516;-67
2020/12/26 02:27:50;;;;;;;5.40;4.12;;;;;;;1.34;78.83;99360.05;1790180;80;21205;-69
2020/12/26 02:30:18;;;;;;;4.22;3.80;;;;;;;1.34;79.56;99361.34;1790055;80;21165;-67
2020/12/26 02:32:46;;;;;;;4.70;3.65;;;;;;;1.32;80.19;99358.34;1790197;80;21134;-67
2020/12/26 02:35:14;;;;;;;6.53;4.97;;;;;;;1.30;80.89;99357.07;1790093;80;21079;-67
2020/12/26 02:37:42;;;;;;;5.03;4.50;;;;;;;1.30;81.54;99354.51;1790084;80;22000;-68
2020/12/26 02:40:09;;;;;;;5.78;5.10;;;;;;;1.30;81.86;99360.91;1790219;80;21453;-68
2020/12/26 02:42:37;;;;;;;6.12;4.78;;;;;;;1.30;82.21;99349.81;1790089;80;21126;-67
2020/12/26 02:45:06;;;;;;;6.00;5.10;;;;;;;1.27;82.72;99357.47;1768326;80;21174;-67
2020/12/26 02:47:33;;;;;;;6.53;4.80;;;;;;;1.25;83.07;99356.19;1790066;80;21051;-68
2020/12/26 02:50:01;;;;;;;7.00;5.58;;;;;;;1.24;83.34;99354.48;1790274;80;21181;-67
2020/12/26 02:52:29;;;;;;;6.00;5.28;;;;;;;1.24;83.55;99354.48;1792567;80;21346;-67
2020/12/26 02:54:56;;;;;;;6.58;5.45;;;;;;;1.24;83.52;99350.64;1795999;80;21146;-67
2020/12/26 02:57:24;;;;;;;5.42;4.72;;;;;;;1.25;83.39;99349.78;1796149;79;21519;-68
2020/12/26 02:59:52;;;;;;;6.17;4.90;;;;;;;1.26;83.09;99348.94;1795925;79;21511;-67
2020/12/26 03:02:19;;;;;;;6.83;5.17;;;;;;;1.26;82.87;99352.77;1796098;80;21558;-68
2020/12/26 03:04:46;;;;;;;7.47;5.20;;;;;;;1.24;82.81;99354.48;1795980;79;21374;-68
2020/12/26 03:07:14;;;;;;;6.67;5.72;;;;;;;1.25;82.64;99357.47;1796272;79;21102;-67
2020/12/26 03:09:42;;;;;;;6.25;5.37;;;;;;;1.24;82.57;99357.47;1796211;79;21054;-71
2020/12/26 03:12:09;;;;;;;5.40;4.90;;;;;;;1.21;82.42;99353.59;1796406;79;22283;-68
2020/12/26 03:14:37;;;;;;;5.65;5.03;;;;;;;1.15;82.53;99345.49;1796094;79;21118;-67
2020/12/26 03:17:05;;;;;;;5.85;5.25;;;;;;;1.11;82.76;99351.02;1796101;79;21390;-67
2020/12/26 03:19:32;;;;;;;6.47;5.62;;;;;;;1.10;82.83;99352.29;1796218;79;21113;-68
2020/12/26 03:22:00;;;;;;;6.40;5.28;;;;;;;1.09;82.72;99363.38;1796090;79;21149;-67
2020/12/26 03:24:28;;;;;;;6.33;4.97;;;;;;;1.10;82.69;99367.65;1796252;79;21122;-68
2020/12/26 03:26:55;;;;;;;7.62;5.40;;;;;;;1.07;82.63;99372.77;1795896;79;21062;-68
2020/12/26 03:29:23;;;;;;;6.83;5.92;;;;;;;1.07;82.80;99367.65;1796295;79;21198;-67
2020/12/26 03:31:52;;;;;;;6.40;5.67;;;;;;;1.08;82.50;99366.80;1795610;79;21117;-68
2020/12/26 03:34:20;;;;;;;6.15;4.97;;;;;;;1.06;82.43;99368.08;1796282;79;21130;-68
2020/12/26 03:36:47;;;;;;;7.55;5.78;;;;;;;1.04;82.50;99371.03;1796024;79;21117;-68
2020/12/26 03:39:15;;;;;;;6.83;5.15;;;;;;;1.06;82.46;99374.91;1796367;79;21082;-67
2020/12/26 03:41:43;;;;;;;6.95;5.60;;;;;;;1.06;82.36;99380.02;1796192;79;21275;-68
2020/12/26 03:44:11;;;;;;;5.42;4.92;;;;;;;1.06;82.27;99377.03;1796044;79;21082;-68
2020/12/26 03:46:38;;;;;;;7.03;5.78;;;;;;;1.06;82.19;99378.31;1796253;79;21111;-68
2020/12/26 03:49:06;;;;;;;6.05;5.42;;;;;;;1.05;82.19;99374.02;1796236;79;21181;-68
2020/12/26 03:51:34;;;;;;;7.47;5.83;;;;;;;1.05;82.32;99372.73;1796307;79;21170;-68
2020/12/26 03:54:02;;;;;;;6.92;5.90;;;;;;;1.07;82.17;99376.61;1790703;79;21206;-68
2020/12/26 03:56:29;;;;;;;6.00;4.97;;;;;;;1.07;82.26;99371.49;1790368;80;21142;-68
2020/12/26 03:58:57;;;;;;;6.42;5.28;;;;;;;1.08;82.36;99374.48;1790285;80;21142;-68
2020/12/26 04:01:24;;;;;;;6.72;5.37;;;;;;;1.07;82.48;99385.57;1790299;80;21078;-68
2020/12/26 04:03:52;;;;;;;7.00;5.65;;;;;;;1.05;82.53;99375.72;1790264;80;21515;-69
2020/12/26 04:06:20;;;;;;;7.60;5.95;;;;;;;1.04;82.63;99371.03;1790498;80;23532;-68
2020/12/26 04:08:48;;;;;;;7.28;5.60;;;;;;;0.98;82.59;99365.02;1790255;80;21121;-68
2020/12/26 04:11:16;;;;;;;6.90;6.03;;;;;;;0.92;82.82;99362.45;1790334;80;21131;-69
2020/12/26 04:13:43;;;;;;;7.42;6.05;;;;;;;0.83;82.98;99361.56;1790418;80;21058;-68
2020/12/26 04:16:12;;;;;;;6.78;5.87;;;;;;;0.73;83.25;99367.88;1790257;80;21161;-69
2020/12/26 04:18:39;;;;;;;6.28;5.28;;;;;;;0.61;83.57;99361.01;1790429;80;21146;-68
2020/12/26 04:21:08;;;;;;;11.88;6.75;;;;;;;0.49;83.94;99364.75;1790221;80;21142;-68
2020/12/26 04:23:35;;;;;;;8.80;6.60;;;;;;;0.35;84.32;99356.13;1790261;80;21201;-68
2020/12/26 04:26:05;;;;;;;9.33;6.83;;;;;;;0.21;84.83;99360.70;1790082;80;21082;-68
2020/12/26 04:28:33;;;;;;;8.80;6.65;;;;;;;0.12;85.32;99358.50;1768539;80;21087;-67
2020/12/26 04:31:00;;;;;;;9.08;6.75;;;;;;;0.00;85.75;99356.72;1790195;80;21308;-67
2020/12/26 04:33:28;;;;;;;9.05;7.12;;;;;;;-0.08;86.10;99357.05;1790365;80;21121;-67
2020/12/26 04:35:56;;;;;;;8.38;6.62;;;;;;;-0.17;86.38;99362.08;1790236;80;21153;-68
2020/12/26 04:38:24;;;;;;;7.62;6.20;;;;;;;-0.21;86.67;99370.58;1768338;80;21591;-68
2020/12/26 04:40:52;;;;;;;8.50;6.42;;;;;;;-0.18;87.11;99374.42;1789908;80;21067;-68
2020/12/26 04:43:19;;;;;;;9.18;6.78;;;;;;;-0.09;87.43;99375.78;1790232;80;22317;-67
2020/12/26 04:45:48;;;;;;;6.60;5.90;;;;;;;-0.01;87.50;99383.95;1790192;80;21571;-67
2020/12/26 04:48:16;;;;;;;8.50;6.00;;;;;;;0.09;87.47;99386.19;1768516;80;21153;-68
2020/12/26 04:50:49;;;;;;;12.45;8.35;;;;;;;0.15;87.52;99388.80;1790238;80;21055;-67
2020/12/26 04:53:19;;;;;;;7.67;6.17;;;;;;;0.21;87.45;99393.94;1792848;79;21130;-67
2020/12/26 04:55:48;;;;;;;8.30;6.55;;;;;;;0.26;87.42;99391.01;1796073;79;21582;-67
2020/12/26 04:58:17;;;;;;;9.23;6.85;;;;;;;0.30;87.49;99385.91;1796244;79;21594;-68
2020/12/26 05:00:45;;;;;;;7.67;6.35;;;;;;;0.31;87.59;99383.81;1796206;79;21070;-68
2020/12/26 05:03:17;;;;;;;8.03;6.35;;;;;;;0.27;87.57;99372.69;1796239;79;21122;-69
2020/12/26 05:05:45;;;;;;;9.18;6.62;;;;;;;0.19;87.65;99379.02;1796090;79;21062;-67
2020/12/26 05:08:15;;;;;;;8.33;6.67;;;;;;;0.16;87.85;99386.67;1796174;79;21446;-67
2020/12/26 05:10:43;;;;;;;9.48;6.87;;;;;;;0.15;88.12;99384.97;1796140;79;21082;-67
2020/12/26 05:13:12;;;;;;;8.55;6.67;;;;;;;0.14;88.37;99385.78;1796077;79;21142;-67
2020/12/26 05:15:40;;;;;;;9.05;6.75;;;;;;;0.14;88.49;99383.65;1796173;79;21133;-67
2020/12/26 05:18:07;;;;;;;8.08;6.85;;;;;;;0.14;88.66;99385.78;1795968;79;21606;-67
2020/12/26 05:20:35;;;;;;;9.70;6.78;;;;;;;0.13;88.75;99380.66;1796220;79;23538;-68
2020/12/26 05:23:14;;;;;;;14.60;10.45;;;;;;;0.11;88.99;99387.47;1795869;79;21081;-67
2020/12/26 05:25:47;;;;;;;14.60;10.15;;;;;;;0.08;89.17;99394.70;1796285;79;21054;-68
2020/12/26 05:28:18;;;;;;;17.23;11.55;;;;;;;0.06;89.34;99395.08;1796057;79;21122;-68
2020/12/26 05:30:49;;;;;;;10.95;8.55;;;;;;;0.06;89.62;99395.08;1796315;79;21205;-68
2020/12/26 05:33:18;;;;;;;10.63;8.00;;;;;;;0.07;89.84;99383.16;1796068;79;21367;-67
2020/12/26 05:35:50;;;;;;;9.33;7.40;;;;;;;0.10;89.95;99393.43;1796115;79;21610;-68
2020/12/26 05:38:21;;;;;;;11.18;7.90;;;;;;;0.13;90.04;99401.97;1796141;79;21149;-68
2020/12/26 05:40:57;;;;;;;10.25;8.05;;;;;;;0.16;90.04;99398.60;1796230;79;21158;-68
2020/12/26 05:43:29;;;;;;;9.20;7.30;;;;;;;0.18;90.00;99401.59;1796237;79;21102;-67
2020/12/26 05:45:58;;;;;;;8.90;7.25;;;;;;;0.21;90.00;99404.16;1795913;79;23616;-68
2020/12/26 05:48:28;;;;;;;10.20;7.15;;;;;;;0.22;89.96;99399.48;1796238;79;21181;-68
2020/12/26 05:50:58;;;;;;;11.48;7.45;;;;;;;0.24;90.01;99403.36;1796036;79;21071;-69
2020/12/26 05:53:26;;;;;;;10.38;7.10;;;;;;;0.23;90.08;99406.34;1796204;79;21054;-68
2020/12/26 05:55:54;;;;;;;10.80;7.67;;;;;;;0.27;90.24;99413.17;1796046;79;21050;-69
2020/12/26 05:58:25;;;;;;;10.82;7.95;;;;;;;0.30;90.20;99413.61;1796127;79;21792;-67
2020/12/26 06:00:55;;;;;;;9.63;7.80;;;;;;;0.36;90.29;99417.92;1796109;80;21536;-69
2020/12/26 06:03:30;;;;;;;13.00;9.28;;;;;;;0.38;90.37;99412.39;1796137;80;21137;-68
2020/12/26 06:06:00;;;;;;;10.40;7.55;;;;;;;0.39;90.37;99420.09;1796296;80;21150;-68
2020/12/26 06:08:28;;;;;;;10.68;7.97;;;;;;;0.42;90.36;99415.42;1796159;80;21122;-68
2020/12/26 06:11:04;;;;;;;13.15;8.63;;;;;;;0.44;90.36;99418.84;1796028;79;21382;-69
2020/12/26 06:13:35;;;;;;;12.75;9.75;;;;;;;0.46;90.42;99420.58;1796116;80;21137;-68
2020/12/26 06:16:22;;;;;;;15.85;10.28;;;;;;;0.48;90.37;99421.45;1796073;79;21148;-68
2020/12/26 06:18:59;;;;;;;13.35;9.88;;;;;;;0.51;90.40;99427.84;1796064;80;21142;-68
2020/12/26 06:21:27;;;;;;;14.50;10.85;;;;;;;0.56;90.24;99431.73;1796160;79;21591;-68
2020/12/26 06:23:55;;;;;;;16.60;11.48;;;;;;;0.59;90.22;99430.89;1795986;80;21381;-69
2020/12/26 06:26:24;;;;;;;16.87;11.75;;;;;;;0.58;90.10;99435.15;1796101;80;21169;-68
2020/12/26 06:28:51;;;;;;;16.40;11.15;;;;;;;0.54;90.09;99444.52;1740656;80;21583;-68
2020/12/26 06:31:19;;;;;;;17.12;11.20;;;;;;;0.49;90.14;99440.20;1795801;80;21161;-67
2020/12/26 06:33:52;;;;;;;13.75;9.88;;;;;;;0.45;90.17;99442.28;1765585;80;21150;-67
2020/12/26 06:36:20;;;;;;;14.90;10.30;;;;;;;0.40;90.23;99445.25;1795078;79;21885;-67
2020/12/26 06:38:48;;;;;;;13.13;10.45;;;;;;;0.35;90.03;99452.87;1796186;79;21122;-67
2020/12/26 06:41:17;;;;;;;11.65;9.73;;;;;;;0.34;90.06;99452.86;1795907;79;22030;-68
2020/12/26 06:43:56;;;;;;;13.43;10.58;;;;;;;0.35;89.99;99454.57;1796287;79;21075;-67
2020/12/26 06:46:29;;;;;;;16.05;12.00;;;;;;;0.37;89.80;99454.16;1796234;79;21106;-67
2020/12/26 06:48:58;;;;;;;16.00;12.20;;;;;;;0.41;89.90;99454.63;1796225;79;23613;-71
2020/12/26 06:51:33;;;;;;;21.45;14.35;;;;;;;0.42;89.99;99453.36;1796095;79;21567;-67
2020/12/26 06:54:02;;;;;;;28.02;16.93;;;;;;;0.46;90.13;99461.50;1793340;79;21134;-67
2020/12/26 06:56:36;;;;;;;19.60;14.10;;;;;;;0.50;90.10;99462.38;1790510;80;21615;-67
2020/12/26 06:59:09;;;;;;;14.47;10.75;;;;;;;0.51;90.00;99462.80;1790303;80;21035;-67
2020/12/26 07:01:41;;;;;;;12.45;8.88;;;;;;;0.49;88.97;99464.50;1790066;80;21349;-67
2020/12/26 07:04:22;;;;;;;9.25;7.80;;;;;;;0.49;88.68;99477.28;1789917;80;21157;-69
2020/12/26 07:06:54;;;;;;;10.90;8.40;;;;;;;0.50;88.31;99481.55;1790393;80;21183;-67
2020/12/26 07:09:42;;;;;;;9.25;8.23;;;;;;;0.55;88.25;99489.71;1790384;80;21567;-67
2020/12/26 07:12:10;;;;;;;8.83;7.92;;;;;;;0.57;88.46;99488.44;1790299;80;21102;-67
2020/12/26 07:14:49;;;;;;;9.78;7.53;;;;;;;0.55;88.47;99493.97;1790327;80;21209;-67
2020/12/26 07:17:25;;;;;;;8.13;6.40;;;;;;;0.50;87.83;99495.63;1790311;80;21650;-67
2020/12/26 07:19:58;;;;;;;7.78;6.05;;;;;;;0.42;87.35;99501.09;1790456;80;21531;-67
2020/12/26 07:22:31;;;;;;;8.60;5.97;;;;;;;0.35;87.05;99499.32;1790376;80;21535;-67
2020/12/26 07:25:07;;;;;;;8.98;6.75;;;;;;;0.27;86.59;99500.52;1790465;80;21114;-67
2020/12/26 07:27:39;;;;;;;6.47;4.90;;;;;;;0.22;86.65;99503.02;1769601;80;21203;-67
2020/12/26 07:30:16;;;;;;;6.03;4.67;;;;;;;0.19;86.72;99503.00;1790116;80;21163;-68
2020/12/26 07:32:57;;;;;;;6.42;4.60;;;;;;;0.19;86.53;99508.12;1790435;80;21146;-67
2020/12/26 07:35:33;;;;;;;4.97;3.92;;;;;;;0.22;86.56;99508.56;1790363;80;21114;-67
2020/12/26 07:38:09;;;;;;;6.92;4.62;;;;;;;0.19;86.34;99509.39;1790388;80;21075;-69
2020/12/26 07:40:43;;;;;;;7.15;4.85;;;;;;;0.16;86.52;99508.52;1790506;80;21807;-69
2020/12/26 07:43:16;;;;;;;10.70;5.95;;;;;;;0.08;86.65;99511.00;1790351;80;21141;-69
2020/12/26 07:45:46;;;;;;;8.33;5.35;;;;;;;-0.02;86.94;99513.00;1790388;80;21075;-68
2020/12/26 07:48:14;;;;;;;6.35;4.03;;;;;;;-0.06;87.26;99513.81;1790296;80;21141;-67
2020/12/26 07:50:43;;;;;;;4.37;3.98;;;;;;;-0.12;87.34;99508.63;1790295;80;21090;-67
2020/12/26 07:53:13;;;;;;;4.47;3.87;;;;;;;-0.17;87.45;99519.20;1790196;80;21396;-69
2020/12/26 07:55:41;;;;;;;4.33;3.83;;;;;;;-0.23;87.46;99525.09;1790413;80;21126;-67
2020/12/26 07:58:13;;;;;;;4.35;3.95;;;;;;;-0.29;87.51;99527.17;1790283;79;21559;-67
2020/12/26 08:00:43;;;;;;;5.15;4.05;;;;;;;-0.32;87.73;99527.54;1790363;80;21054;-68
2020/12/26 08:03:12;;;;;;;7.08;5.40;;;;;;;-0.35;87.95;99532.20;1790317;80;21134;-68
2020/12/26 08:05:47;;;;;;;10.40;8.30;;;;;;;-0.38;88.33;99538.56;1790423;80;22387;-69
2020/12/26 08:08:23;;;;;;;5.80;5.00;;;;;;;-0.40;88.52;99550.44;1790405;80;21087;-68
2020/12/26 08:10:58;;;;;;;7.05;5.87;;;;;;;-0.42;88.78;99551.26;1790541;80;21075;-68
2020/12/26 08:13:27;;;;;;;7.25;5.47;;;;;;;-0.45;88.99;99551.23;1790550;80;21599;-68
2020/12/26 08:16:03;;;;;;;10.65;6.70;;;;;;;-0.47;89.06;99552.46;1790367;80;21075;-68
2020/12/26 08:18:35;;;;;;;17.60;10.53;;;;;;;-0.44;89.35;99555.50;1790176;80;21141;-68
2020/12/26 08:21:06;;;;;;;6.70;6.00;;;;;;;-0.39;89.44;99554.70;1790293;80;21074;-69
2020/12/26 08:23:33;;;;;;;5.75;4.80;;;;;;;-0.29;89.25;99560.81;1789817;80;21488;-68
2020/12/26 08:26:01;;;;;;;6.28;4.78;;;;;;;-0.20;89.22;99562.62;1790430;80;21138;-68
2020/12/26 08:28:30;;;;;;;5.33;4.20;;;;;;;-0.10;88.23;99574.66;1790532;80;21606;-68
2020/12/26 08:31:02;;;;;;;6.17;5.67;;;;;;;-0.01;88.06;99570.93;1790462;80;22231;-68
2020/12/26 08:33:32;;;;;;;6.08;4.75;;;;;;;0.07;88.04;99573.16;1744367;80;21137;-68
2020/12/26 08:36:26;;;;;;;5.70;4.20;;;;;;;0.15;87.19;99579.63;1768496;80;21181;-68
2020/12/26 08:38:58;;;;;;;7.35;5.72;;;;;;;0.19;86.36;99587.37;1790429;80;21056;-68
2020/12/26 08:41:26;;;;;;;13.60;9.38;;;;;;;0.24;86.29;99595.11;1790378;80;21638;-68
2020/12/26 08:43:54;;;;;;;8.28;6.28;;;;;;;0.28;86.43;99593.00;1790365;80;21886;-68
2020/12/26 08:46:23;;;;;;;4.87;4.17;;;;;;;0.30;86.61;99587.90;1790036;80;21070;-68
2020/12/26 08:48:52;;;;;;;6.12;4.10;;;;;;;0.34;86.47;99590.52;1790537;80;21500;-68
2020/12/26 08:51:26;;;;;;;8.63;5.28;;;;;;;0.40;86.10;99594.85;1790303;80;21121;-68
2020/12/26 08:53:56;;;;;;;5.85;4.35;;;;;;;0.43;86.06;99604.67;1790775;79;21150;-66
2020/12/26 08:56:37;;;;;;;6.33;5.20;;;;;;;0.50;85.66;99607.74;1795974;79;21372;-67
2020/12/26 08:59:05;;;;;;;9.18;7.47;;;;;;;0.58;85.58;99605.27;1796104;79;21050;-67
2020/12/26 09:01:33;;;;;;;7.25;5.58;;;;;;;0.69;85.36;99607.95;1796194;79;21038;-67
2020/12/26 09:04:01;;;;;;;7.45;5.67;;;;;;;0.79;84.92;99604.20;1796150;79;21669;-67
2020/12/26 09:06:33;;;;;;;24.07;17.80;;;;;;;0.87;84.23;99605.97;1796117;79;21114;-66
2020/12/26 09:09:25;;;;;;;8.60;7.15;;;;;;;0.95;84.19;99615.44;1796025;79;21145;-68
2020/12/26 09:12:04;;;;;;;6.45;5.17;;;;;;;1.04;83.90;99618.06;1796267;79;21091;-68
2020/12/26 09:14:32;;;;;;;5.10;3.85;;;;;;;1.12;83.59;99613.01;1796079;79;21605;-68
2020/12/26 09:17:02;;;;;;;4.72;4.20;;;;;;;1.20;82.83;99617.77;1796128;79;21106;-68
2020/12/26 09:19:45;;;;;;;7.83;5.78;;;;;;;1.23;82.47;99624.22;1796219;79;21173;-67
2020/12/26 09:22:12;;;;;;;14.28;8.28;;;;;;;1.24;81.71;99611.84;1793314;79;21152;-67
2020/12/26 09:24:40;;;;;;;10.30;7.33;;;;;;;1.23;81.44;99622.93;1796092;79;21566;-67
2020/12/26 09:27:23;;;;;;;14.05;10.53;;;;;;;1.24;81.44;99619.52;1796071;79;21165;-71
2020/12/26 09:30:05;;;;;;;20.65;13.25;;;;;;;1.31;81.61;99622.99;1796092;79;21107;-67
2020/12/26 09:32:33;;;;;;;9.65;6.47;;;;;;;1.35;80.65;99620.45;1795472;79;37481;-67
2020/12/26 09:35:12;;;;;;;7.25;5.10;;;;;;;1.35;80.29;99617.03;1796395;79;22182;-67
2020/12/26 09:37:54;;;;;;;8.53;6.03;;;;;;;1.31;80.49;99631.53;1776508;79;21137;-68
2020/12/26 09:40:31;;;;;;;8.38;6.15;;;;;;;1.29;80.41;99634.52;1796012;79;21059;-68
2020/12/26 09:42:59;;;;;;;7.45;5.85;;;;;;;1.25;80.42;99628.91;1796212;79;21142;-68
2020/12/26 09:45:27;;;;;;;6.20;5.12;;;;;;;1.19;80.40;99635.27;1796172;79;21201;-68
2020/12/26 09:47:57;;;;;;;6.85;5.33;;;;;;;1.15;80.87;99641.22;1796014;79;21200;-68
2020/12/26 09:50:25;;;;;;;6.85;5.97;;;;;;;1.11;80.84;99639.04;1796152;79;21086;-68
2020/12/26 09:52:53;;;;;;;8.95;7.62;;;;;;;1.08;81.32;99635.61;1796022;79;21496;-68
2020/12/26 09:55:22;;;;;;;9.33;8.33;;;;;;;1.10;81.92;99631.34;1791484;79;21059;-68
2020/12/26 09:57:50;;;;;;;9.75;8.50;;;;;;;1.12;81.77;99634.77;1790318;80;21559;-68
2020/12/26 10:00:17;;;;;;;9.55;8.25;;;;;;;1.14;81.52;99638.23;1790381;80;21570;-68
2020/12/26 10:02:45;;;;;;;10.93;8.93;;;;;;;1.14;81.43;99642.07;1790136;80;21126;-68
2020/12/26 10:05:16;;;;;;;8.43;7.53;;;;;;;1.11;81.57;99634.34;1790297;80;21074;-68
2020/12/26 10:07:42;;;;;;;8.93;7.42;;;;;;;1.08;81.60;99634.33;1790265;80;21063;-68
2020/12/26 10:10:10;;;;;;;12.65;10.60;;;;;;;1.07;81.83;99641.58;1790191;80;21582;-71
2020/12/26 10:12:37;;;;;;;11.28;8.98;;;;;;;1.07;81.98;99639.88;1790427;80;21439;-68
2020/12/26 10:15:04;;;;;;;7.67;6.17;;;;;;;1.09;81.99;99640.73;1790371;80;21078;-68
2020/12/26 10:17:32;;;;;;;8.00;6.55;;;;;;;1.10;81.61;99644.15;1790347;80;21369;-68
2020/12/26 10:19:59;;;;;;;7.97;6.25;;;;;;;1.13;81.63;99642.88;1790436;80;21153;-68
2020/12/26 10:22:27;;;;;;;8.05;6.90;;;;;;;1.11;81.33;99642.87;1790161;80;21169;-67
2020/12/26 10:24:54;;;;;;;10.63;7.80;;;;;;;1.10;81.60;99653.97;1790357;80;22226;-68
2020/12/26 10:27:22;;;;;;;10.15;7.53;;;;;;;1.09;81.52;99653.53;1790385;80;21066;-67
2020/12/26 10:29:50;;;;;;;7.25;5.75;;;;;;;1.11;81.52;99654.83;1790412;80;21122;-68
2020/12/26 10:32:17;;;;;;;7.97;6.70;;;;;;;1.10;81.05;99652.69;1790144;80;21607;-69
2020/12/26 10:34:46;;;;;;;7.85;6.80;;;;;;;1.03;81.03;99652.19;1790069;80;21157;-68
2020/12/26 10:37:16;;;;;;;9.50;7.65;;;;;;;1.00;81.29;99655.16;1790257;80;21366;-68
2020/12/26 10:39:44;;;;;;;8.60;6.70;;;;;;;0.97;81.54;99645.73;1790360;80;21126;-68
2020/12/26 10:42:12;;;;;;;20.40;12.78;;;;;;;0.98;81.55;99647.87;1767949;80;21074;-72
2020/12/26 10:44:39;;;;;;;25.00;15.70;;;;;;;1.01;81.73;99649.20;1790439;80;21121;-68
2020/12/26 10:47:07;;;;;;;16.55;13.43;;;;;;;1.03;81.83;99639.82;1790612;80;21181;-68
2020/12/26 10:49:36;;;;;;;10.68;9.18;;;;;;;1.07;81.63;99640.30;1790197;80;21154;-68
2020/12/26 10:52:04;;;;;;;10.53;8.20;;;;;;;1.08;81.72;99636.47;1790329;80;21650;-67
2020/12/26 10:54:31;;;;;;;8.90;8.00;;;;;;;1.12;81.68;99638.61;1790145;80;21091;-68
2020/12/26 10:56:59;;;;;;;12.00;9.73;;;;;;;1.16;81.61;99646.77;1790461;80;21117;-68
2020/12/26 10:59:27;;;;;;;12.63;9.68;;;;;;;1.21;81.47;99630.14;1790269;80;21626;-69
2020/12/26 11:01:54;;;;;;;11.57;9.85;;;;;;;1.26;81.52;99632.33;1790622;80;22036;-68
2020/12/26 11:04:22;;;;;;;12.75;10.55;;;;;;;1.29;81.24;99632.38;1790102;80;21161;-68
2020/12/26 11:06:49;;;;;;;10.32;8.85;;;;;;;1.30;81.35;99624.70;1790487;80;21119;-68
2020/12/26 11:09:17;;;;;;;10.88;8.60;;;;;;;1.32;80.96;99629.41;1790417;80;21603;-68
2020/12/26 11:11:52;;;;;;;12.55;10.30;;;;;;;1.34;80.56;99621.30;1790649;80;21078;-68
2020/12/26 11:14:20;;;;;;;13.57;10.30;;;;;;;1.34;80.66;99620.02;1790614;80;21344;-68
2020/12/26 11:16:48;;;;;;;13.58;10.13;;;;;;;1.38;80.91;99618.35;1790185;80;21157;-68
2020/12/26 11:19:16;;;;;;;12.37;10.78;;;;;;;1.45;80.75;99621.82;1790124;80;21042;-69
2020/12/26 11:21:44;;;;;;;11.25;9.25;;;;;;;1.46;80.46;99617.98;1789995;80;21518;-68
2020/12/26 11:24:12;;;;;;;12.13;9.08;;;;;;;1.45;80.46;99622.67;1790453;80;21107;-68
2020/12/26 11:26:39;;;;;;;10.65;9.50;;;;;;;1.44;80.50;99614.56;1790417;80;21386;-68
2020/12/26 11:29:07;;;;;;;10.08;8.68;;;;;;;1.44;80.67;99621.39;1768579;80;21180;-68
2020/12/26 11:31:38;;;;;;;10.23;9.08;;;;;;;1.46;80.61;99614.56;1790277;80;21181;-67
2020/12/26 11:34:13;;;;;;;14.25;11.85;;;;;;;1.46;80.67;99620.97;1784940;79;21185;-69
2020/12/26 11:36:41;;;;;;;21.12;12.93;;;;;;;1.44;80.77;99620.11;1789191;80;21177;-70
2020/12/26 11:39:10;;;;;;;16.20;11.78;;;;;;;1.44;81.14;99613.70;1790137;80;21363;-69
2020/12/26 11:41:39;;;;;;;19.52;12.65;;;;;;;1.41;81.25;99626.05;1790354;80;21413;-68
2020/12/26 11:44:07;;;;;;;15.60;11.08;;;;;;;1.43;81.37;99627.33;1790382;80;21174;-68
2020/12/26 11:46:34;;;;;;;18.73;10.72;;;;;;;1.42;80.71;99632.02;1790211;80;21063;-69
2020/12/26 11:49:03;;;;;;;12.15;8.95;;;;;;;1.35;80.48;99631.12;1790515;80;21137;-68